Weather observations for the past three days for
Statesboro, Statesboro-Bulloch County Airport
| Date | Time (edt) | Wind (mph) | Vis. (mi.) | Weather | Sky Cond. | Temperature (ºF) | Relative Humidity | Wind Chill (°F) | Heat Index (°F) | Pressure | Precipitation (in) | ||||||
|---|---|---|---|---|---|---|---|---|---|---|---|---|---|---|---|---|---|
| Air | Dwpt | 6 hour | altimeter (in) | sea level (mb) | 1 hr | 3 hr | 6 hr | ||||||||||
| Max. | Min. | ||||||||||||||||
| 03 | 01:15 | NW 3 | 9.00 | Mostly Cloudy | FEW040 BKN070 BKN080 | 55.4 | 55.4 | 100% | 30.01 | 0.0 | |||||||
| 03 | 00:55 | W 3 | 10.00 | Overcast | SCT037 BKN049 OVC070 | 55.4 | 55.4 | 100% | 30 | 0.0 | |||||||
| 03 | 00:35 | Calm | 9.00 | Overcast | BKN037 OVC047 | 53.6 | 53.6 | 100% | 30 | 0.0 | |||||||
| 03 | 00:15 | Calm | 7.00 | Mostly Cloudy | SCT039 BKN046 BKN075 | 55.4 | 55.4 | 100% | 29.99 | 0.0 | |||||||
| 02 | 23:55 | N 3 | 10.00 | Mostly Cloudy | FEW039 SCT046 BKN070 | 55.4 | 55.4 | 100% | 29.99 | 0.0 | |||||||
| 02 | 23:35 | N 1 | 10.00 | Mostly Cloudy | BKN044 BKN070 | 55.4 | 55.4 | 100% | 29.98 | 0.0 | |||||||
| 02 | 23:15 | NE 3 | 10.00 | Overcast | OVC048 | 55.4 | 55.4 | 100% | 29.98 | 0.0 | |||||||
| 02 | 22:55 | N 1 | 10.00 | Overcast | SCT014 OVC050 | 55.4 | 55.4 | 100% | 29.98 | 0.0 | |||||||
| 02 | 22:35 | NE 3 | 10.00 | Overcast | OVC014 | 57.2 | 55.4 | 94% | 29.97 | 0.0 | |||||||
| 02 | 22:15 | Vrbl 5 | 10.00 | Overcast | OVC014 | 57.2 | 55.4 | 94% | 29.96 | 0.0 | |||||||
| 02 | 21:55 | NE 6 | 10.00 | Overcast | OVC014 | 57.2 | 55.4 | 94% | 29.95 | 0.0 | |||||||
| 02 | 21:35 | N 7 | 10.00 | Overcast | OVC014 | 57.2 | 57.2 | 100% | 29.94 | 0.0 | |||||||
| 02 | 21:15 | NE 8 | 10.00 | Overcast | OVC014 | 57.2 | 57.2 | 100% | 29.94 | 0.0 | |||||||
| 02 | 20:55 | NE 5 | 10.00 | Overcast | OVC012 | 57.2 | 57.2 | 100% | 29.93 | 0.0 | |||||||
| 02 | 20:35 | NE 3 | 10.00 | Overcast | OVC012 | 57.2 | 57.2 | 100% | 29.92 | 0.0 | |||||||
| 02 | 20:15 | NE 3 | 10.00 | Overcast | BKN012 OVC021 | 57.2 | 57.2 | 100% | 29.91 | 0.0 | |||||||
| 02 | 19:35 | NE 7 | 10.00 | Overcast | BKN013 OVC018 | 59 | 57.2 | 94% | 29.89 | 0.0 | |||||||
| 02 | 19:15 | NE 6 | 10.00 | Overcast | BKN013 OVC090 | 60.8 | 57.2 | 88% | 29.88 | 0.0 | |||||||
| 02 | 18:55 | NE 8 | 10.00 | Mostly Cloudy | SCT011 SCT021 BKN090 | 60.8 | 57.2 | 88% | 29.87 | 0.0 | |||||||
| 02 | 18:35 | NE 7 | 10.00 | Overcast | SCT017 BKN060 OVC070 | 60.8 | 59 | 94% | 29.88 | 0.0 | |||||||
| 02 | 18:15 | NE 6 | 10.00 | Mostly Cloudy | FEW008 FEW017 BKN060 | 59 | 59 | 100% | 29.87 | 0.0 | |||||||
| 02 | 17:55 | N 6 | 10.00 | Partly Cloudy | FEW010 SCT050 SCT065 | 59 | 57.2 | 94% | 29.86 | 0.0 | |||||||
| 02 | 17:37 | N 7 | 10.00 | Light Drizzle | FEW045 | 59 | 59 | 100% | 29.86 | 0.0 | |||||||
| 02 | 17:15 | N 6 | 10.00 | Mostly Cloudy | FEW007 SCT035 BKN043 | 59 | 57.2 | 94% | 29.86 | 0.0 | |||||||
| 02 | 16:35 | N 10 G 17 | 4.00 | Light Drizzle Fog/Mist | FEW005 FEW020 SCT032 | 57.2 | 57.2 | 100% | 29.86 | 0.0 | |||||||
| 02 | 16:15 | N 14 G 23 | 1.75 | Light Drizzle Fog/Mist | SCT007 BKN017 BKN022 | 59 | 59 | 100% | 29.85 | 0.0 | |||||||
| 02 | 15:55 | N 7 | 1.50 | Light Drizzle Fog/Mist | SCT007 SCT014 | 59 | 59 | 100% | 29.85 | 0.0 | 0.02 | ||||||
| 02 | 15:35 | Vrbl 6 | 2.00 | Light Drizzle Fog/Mist | SCT007 BKN012 BKN026 | 59 | 59 | 100% | 29.86 | 0.0 | |||||||
| 02 | 15:15 | N 7 | 4.00 | Light Drizzle Fog/Mist | SCT007 SCT012 BKN018 | 59 | 59 | 100% | 29.85 | 0.0 | |||||||
| 02 | 14:35 | N 10 | 8.00 | Light Rain | FEW008 BKN016 BKN033 | 59 | 59 | 100% | 29.85 | 0.0 | |||||||
| 02 | 14:15 | N 9 | 4.00 | Light Rain Fog/Mist | SCT014 BKN019 BKN024 | 59 | 59 | 100% | 29.85 | 0.0 | |||||||
| 02 | 13:55 | N 9 | 10.00 | Overcast | SCT014 BKN018 OVC027 | 59 | 59 | 60.3 | 57.6 | 100% | 29.86 | 0.0 | 0.02 | ||||
| 02 | 13:35 | N 9 | 10.00 | Light Rain | SCT012 BKN020 OVC031 | 59 | 59 | 100% | 29.85 | 0.0 | |||||||
| 02 | 13:15 | N 8 | 9.00 | Light Rain | SCT014 BKN022 BKN029 | 59 | 59 | 100% | 29.84 | 0.0 | |||||||
| 02 | 12:55 | N 7 | 10.00 | Light Rain | BKN007 BKN015 OVC030 | 59 | 59 | 100% | 29.85 | 0.0 | 0.01 | ||||||
| 02 | 12:35 | N 8 | 10.00 | Light Drizzle | BKN007 BKN011 BKN029 | 59 | 59 | 100% | 29.85 | 0.0 | |||||||
| 02 | 12:15 | NE 9 | 5.00 | Light Rain Fog/Mist | SCT005 SCT010 BKN016 | 59 | 59 | 100% | 29.85 | 0.0 | |||||||
| 02 | 11:55 | NE 7 | 2.00 | Rain Fog/Mist | BKN007 OVC014 | 59 | 57.2 | 94% | 29.88 | 0.0 | 0.07 | ||||||
| 02 | 11:35 | N 8 | 7.00 | Light Drizzle | BKN007 OVC012 | 57.2 | 57.2 | 100% | 29.87 | 0.0 | |||||||
| 02 | 11:15 | N 9 | 5.00 | Light Rain Fog/Mist | BKN007 OVC012 | 57.2 | 57.2 | 100% | 29.85 | 0.0 | |||||||
| 02 | 10:55 | NE 7 | 4.00 | Light Rain Fog/Mist | BKN007 BKN012 | 59 | 59 | 100% | 29.87 | 0.0 | 0.07 | ||||||
| 02 | 10:35 | N 8 | 5.00 | Light Rain Fog/Mist | BKN007 OVC016 | 57.2 | 57.2 | 100% | 29.87 | 0.0 | |||||||
| 02 | 10:15 | N 9 | 4.00 | Light Rain Fog/Mist | SCT007 BKN016 BKN023 | 57.2 | 57.2 | 100% | 29.86 | 0.0 | |||||||
| 02 | 09:55 | N 7 | 5.00 | Light Rain Fog/Mist | SCT007 BKN016 BKN023 | 57.2 | 57.2 | 100% | 29.87 | 0.0 | 0.12 | ||||||
| 02 | 09:35 | N 5 | 2.50 | Light Rain Fog/Mist | OVC005 | 57.2 | 57.2 | 100% | 29.88 | 0.0 | |||||||
| 02 | 08:55 | N 8 | 4.00 | Light Rain Fog/Mist | BKN005 BKN013 OVC019 | 59 | 59 | 100% | 29.86 | 0.0 | 0.14 | ||||||
| 02 | 08:35 | N 9 | 3.00 | Light Rain Fog/Mist | OVC005 | 59 | 59 | 100% | 29.85 | 0.0 | |||||||
| 02 | 08:15 | N 8 | 2.00 | Rain Fog/Mist | BKN005 OVC010 | 59 | 59 | 100% | 29.85 | 0.0 | |||||||
| 02 | 07:55 | N 7 | 2.00 | Rain Fog/Mist | OVC007 | 59 | 59 | 63 | 58.8 | 100% | 29.85 | 0.0 | 0.18 | ||||
| 02 | 07:35 | NW 6 | 2.00 | Rain Fog/Mist | OVC005 | 59 | 59 | 100% | 29.85 | 0.0 | |||||||
| 02 | 07:15 | Vrbl 5 | 2.00 | Rain Fog/Mist | OVC005 | 59 | 59 | 100% | 29.84 | 0.0 | |||||||
| 02 | 06:55 | N 6 | 1.75 | Rain Fog/Mist | OVC003 | 59 | 59 | 100% | 29.82 | 0.0 | 0.05 | ||||||
| 02 | 06:35 | NW 5 | 6.00 | Light Rain Fog/Mist | OVC003 | 59 | 59 | 100% | 29.82 | 0.0 | |||||||
| 02 | 06:15 | N 7 | 9.00 | Overcast | BKN003 BKN010 OVC021 | 59 | 59 | 100% | 29.8 | 0.0 | |||||||
| 02 | 05:55 | N 8 | 4.00 | Light Rain Fog/Mist | SCT007 BKN015 OVC022 | 59 | 59 | 100% | 29.82 | 0.0 | 0.07 | ||||||
| 02 | 05:35 | N 3 | 4.00 | Light Rain Fog/Mist | FEW016 BKN022 BKN080 | 59 | 59 | 100% | 29.84 | 0.0 | |||||||
| 02 | 05:15 | Vrbl 3 | 3.00 | Light Rain Fog/Mist | SCT006 SCT010 OVC022 | 60.8 | 60.8 | 100% | 29.84 | 0.0 | |||||||
| 02 | 04:55 | N 7 | 2.00 | Rain Fog/Mist | BKN006 OVC011 | 59 | 59 | 100% | 29.84 | 0.0 | 0.1 | ||||||
| 02 | 04:35 | N 3 | 3.00 | Light Rain Fog/Mist | SCT065 BKN075 BKN100 | 59 | 59 | 100% | 29.85 | 0.0 | |||||||
| 02 | 04:15 | Calm | 3.00 | Light Rain Fog/Mist | FEW075 SCT100 | 60.8 | 59 | 94% | 29.85 | 0.0 | |||||||
| 02 | 03:55 | NW 3 | 2.50 | Light Rain Fog/Mist | SCT065 SCT075 BKN100 | 60.8 | 59 | 94% | 29.85 | 0.0 | 0.11 | ||||||
| 02 | 03:35 | W 5 | 7.00 | Light Rain Fog/Mist | SCT039 BKN060 OVC100 | 60.8 | 59 | 94% | 29.86 | 0.0 | |||||||
| 02 | 03:15 | W 7 | 1.25 | Rain Fog/Mist | SCT039 BKN050 BKN065 | 60.8 | 60.8 | 100% | 29.88 | 0.0 | |||||||
| 02 | 02:55 | Vrbl 6 | 4.00 | Light Rain Fog/Mist | FEW005 FEW070 FEW110 | 60.8 | 60.8 | 100% | 29.87 | 0.0 | 0.09 | ||||||
| 02 | 02:35 | N 6 | 1.75 | Light Rain Fog/Mist | BKN004 BKN011 OVC085 | 62.6 | 62.6 | 100% | 29.86 | 0.0 | |||||||
| 02 | 02:15 | Vrbl 3 | 2.50 | Light Rain Fog/Mist | OVC004 | 62.6 | 62.6 | 100% | 29.87 | 0.0 | |||||||
| 02 | 01:55 | NW 6 | 2.50 | Light Rain Fog/Mist | OVC004 | 62.6 | 62.6 | 65.3 | 63 | 100% | 29.88 | 0.0 | 0.04 | ||||
| 02 | 01:35 | NW 7 | 2.50 | Light Rain Fog/Mist | OVC004 | 62.6 | 62.6 | 100% | 29.88 | 0.0 | |||||||
| 02 | 01:15 | NW 5 | 3.00 | Light Rain Fog/Mist | OVC004 | 64.4 | 64.4 | 100% | 29.88 | 0.0 | |||||||
| 02 | 00:55 | NW 5 | 4.00 | Light Rain Fog/Mist | BKN004 BKN049 OVC075 | 64.4 | 64.4 | 100% | 29.89 | 0.0 | 0.01 | ||||||
| 02 | 00:35 | NW 5 | 4.00 | Light Rain Fog/Mist | OVC004 | 64.4 | 64.4 | 100% | 29.89 | 0.0 | |||||||
| 02 | 00:15 | N 3 | 4.00 | Light Rain Fog/Mist | OVC004 | 64.4 | 64.4 | 100% | 29.87 | 0.0 | |||||||
| 01 | 23:55 | N 3 | 3.00 | Light Rain Fog/Mist | OVC004 | 64.4 | 64.4 | 100% | 29.87 | 0.0 | 0.01 | ||||||
| 01 | 23:35 | N 5 | 3.00 | Light Rain Fog/Mist | OVC004 | 64.4 | 64.4 | 100% | 29.87 | 0.0 | |||||||
| 01 | 23:15 | Vrbl 1 | 4.00 | Light Rain Fog/Mist | OVC004 | 64.4 | 64.4 | 100% | 29.88 | 0.0 | |||||||
| 01 | 22:55 | N 2 | 5.00 | Light Drizzle Fog/Mist | OVC004 | 64.4 | 64.4 | 100% | 29.87 | 0.0 | 0.01 | ||||||
| 01 | 22:35 | NW 2 | 6.00 | Fog/Mist | OVC004 | 64.4 | 64.4 | 100% | 29.88 | 0.0 | |||||||
| 01 | 22:15 | N 2 | 6.00 | Light Rain Fog/Mist | OVC004 | 64.4 | 64.4 | 100% | 29.88 | 0.0 | |||||||
| 01 | 21:55 | N 5 | 6.00 | Light Rain Fog/Mist | BKN006 OVC040 | 64.4 | 64.4 | 100% | 29.87 | 0.0 | |||||||
| 01 | 21:35 | N 5 | 7.00 | Light Rain Fog/Mist | BKN006 OVC040 | 64.4 | 64.4 | 100% | 29.88 | 0.0 | |||||||
| 01 | 21:15 | N 5 | 7.00 | Light Rain Fog/Mist | BKN006 BKN023 OVC035 | 64.4 | 64.4 | 100% | 29.89 | 0.0 | |||||||
| 01 | 20:55 | NW 3 | 9.00 | Overcast | SCT006 BKN025 OVC033 | 64.4 | 64.4 | 100% | 29.9 | 0.0 | |||||||
| 01 | 20:35 | NW 3 | 9.00 | Overcast | FEW006 BKN025 OVC032 | 64.4 | 64.4 | 100% | 29.88 | 0.0 | |||||||
| 01 | 20:15 | N 3 | 6.00 | Light Drizzle Fog/Mist | FEW007 FEW017 OVC031 | 64.4 | 64.4 | 100% | 29.86 | 0.0 | |||||||
| 01 | 19:55 | N 3 | 5.00 | Light Drizzle Fog/Mist | FEW007 BKN015 OVC031 | 64.4 | 64.4 | 74.3 | 65.3 | 100% | 29.85 | 0.0 | |||||
| 01 | 19:35 | NW 2 | 10.00 | Light Drizzle | OVC015 | 66.2 | 64.4 | 94% | 29.86 | 0.0 | |||||||
| 01 | 19:15 | N 6 | 10.00 | Overcast | FEW005 BKN011 OVC040 | 66.2 | 66.2 | 100% | 29.85 | 0.0 | |||||||
| 01 | 18:55 | NE 7 | 10.00 | Light Drizzle | BKN006 BKN030 OVC047 | 66.2 | 66.2 | 100% | 29.83 | 0.0 | 0.06 | ||||||
| 01 | 18:35 | Vrbl 3 | 10.00 | Light Drizzle | SCT034 OVC047 | 66.2 | 66.2 | 100% | 29.84 | 0.0 | |||||||
| 01 | 18:15 | NE 6 | 2.00 | Light Rain Fog/Mist | SCT033 BKN043 OVC049 | 66.2 | 66.2 | 100% | 29.85 | 0.0 | |||||||
| 01 | 17:55 | E 8 | 5.00 | Light Rain Fog/Mist | FEW049 BKN060 | 68 | 66.2 | 94% | 29.85 | 0.0 | 0.02 | ||||||
| 01 | 17:35 | E 5 | 7.00 | Light Rain | BKN065 OVC070 | 69.8 | 66.2 | 88% | 29.85 | 0.0 | |||||||
| 01 | 17:15 | SE 7 | 10.00 | Overcast | FEW050 OVC070 | 71.6 | 64.4 | 78% | 29.85 | 0.0 | |||||||
| 01 | 16:55 | E 9 | 10.00 | Mostly Cloudy | FEW041 BKN070 BKN100 | 71.6 | 62.6 | 73% | 29.84 | 0.0 | |||||||
| 01 | 16:35 | E 7 | 10.00 | Partly Cloudy | SCT041 SCT090 | 73.4 | 64.4 | 74% | 29.84 | 0.0 | |||||||
| 01 | 16:15 | SE 9 | 10.00 | Partly Cloudy | FEW041 SCT090 | 73.4 | 64.4 | 74% | 29.84 | 0.0 | |||||||
| 01 | 15:55 | E 7 | 10.00 | Partly Cloudy | FEW034 SCT050 SCT090 | 73.4 | 64.4 | 74% | 29.85 | 0.0 | |||||||
| 01 | 15:35 | SE 8 | 10.00 | Mostly Cloudy | SCT036 BKN055 BKN090 | 71.6 | 64.4 | 78% | 29.86 | 0.0 | |||||||
| 01 | 15:15 | E 9 | 10.00 | Mostly Cloudy | SCT024 SCT031 BKN037 | 73.4 | 66.2 | 78% | 29.86 | 0.0 | |||||||
| 01 | 14:55 | NE 9 | 10.00 | Light Drizzle | BKN027 BKN036 BKN070 | 71.6 | 66.2 | 83% | 29.87 | 0.0 | |||||||
| 01 | 14:35 | NE 6 | 10.00 | Overcast | BKN027 BKN047 OVC075 | 69.8 | 66.2 | 88% | 29.88 | 0.0 | |||||||
| 01 | 14:15 | NE 7 | 10.00 | Light Rain | FEW027 BKN060 OVC070 | 69.8 | 66.2 | 88% | 29.88 | 0.0 | |||||||
| 01 | 13:55 | NE 7 | 10.00 | Light Rain | BKN070 OVC085 | 69.8 | 66.2 | 76.3 | 63.7 | 88% | 29.87 | 0.0 | |||||
| 01 | 13:35 | NE 8 | 10.00 | Mostly Cloudy | SCT037 BKN080 BKN085 | 73.4 | 66.2 | 78% | 29.87 | 0.0 | |||||||
| 01 | 13:15 | NE 9 | 10.00 | Mostly Cloudy | SCT030 SCT042 BKN065 | 73.4 | 66.2 | 78% | 29.87 | 0.0 | |||||||
| 01 | 12:55 | NE 8 | 10.00 | Mostly Cloudy | SCT022 SCT045 BKN070 | 73.4 | 66.2 | 78% | 29.88 | 0.0 | |||||||
| 01 | 12:35 | NE 9 | 10.00 | Overcast | BKN020 OVC025 | 73.4 | 66.2 | 78% | 29.87 | 0.0 | |||||||
| 01 | 12:15 | NW 5 | 10.00 | Mostly Cloudy | SCT020 BKN025 BKN034 | 75.2 | 66.2 | 74% | 77 | 29.88 | 0.0 | ||||||
| 01 | 11:55 | Calm | 10.00 | Mostly Cloudy | BKN020 BKN095 | 75.2 | 66.2 | 74% | 77 | 29.89 | 0.0 | ||||||
| 01 | 11:35 | Vrbl 3 | 10.00 | Mostly Cloudy | BKN016 BKN023 BKN100 | 75.2 | 66.2 | 74% | 77 | 29.89 | 0.0 | ||||||
| 01 | 11:15 | Vrbl 5 | 10.00 | Mostly Cloudy | SCT014 BKN100 | 73.4 | 68 | 83% | 29.9 | 0.0 | |||||||
| 01 | 10:55 | Vrbl 3 | 10.00 | Mostly Cloudy | BKN012 BKN100 | 71.6 | 68 | 88% | 29.89 | 0.0 | |||||||
| 01 | 10:35 | S 6 | 10.00 | Overcast | OVC010 | 71.6 | 66.2 | 83% | 29.89 | 0.0 | |||||||
| 01 | 10:15 | SE 3 | 10.00 | Overcast | OVC008 | 71.6 | 66.2 | 83% | 29.88 | 0.0 | |||||||
| 01 | 09:55 | SW 2 | 10.00 | Overcast | OVC006 | 69.8 | 66.2 | 88% | 29.89 | 0.0 | |||||||
| 01 | 09:35 | SE 2 | 10.00 | Overcast | OVC006 | 68 | 64.4 | 88% | 29.89 | 0.0 | |||||||
| 01 | 09:15 | S 2 | 7.00 | Fog/Mist | OVC004 | 66.2 | 64.4 | 94% | 29.89 | 0.0 | |||||||
| 01 | 08:55 | Vrbl 1 | 10.00 | Overcast | OVC004 | 66.2 | 62.6 | 88% | 29.88 | 0.0 | |||||||
| 01 | 08:35 | S 2 | 10.00 | Overcast | OVC004 | 64.4 | 62.6 | 94% | 29.87 | 0.0 | |||||||
| 01 | 08:15 | Vrbl 1 | 10.00 | Overcast | OVC004 | 64.4 | 62.6 | 94% | 29.88 | 0.0 | |||||||
| 01 | 07:55 | W 1 | 10.00 | Overcast | OVC004 | 64.4 | 60.8 | 64.8 | 59.5 | 88% | 29.87 | 0.0 | |||||
| 01 | 07:35 | N 2 | 10.00 | Overcast | OVC006 | 62.6 | 60.8 | 94% | 29.87 | 0.0 | |||||||
| 01 | 07:15 | NE 2 | 10.00 | Overcast | OVC006 | 62.6 | 60.8 | 94% | 29.86 | 0.0 | |||||||
| 01 | 06:55 | NW 2 | 10.00 | Overcast | OVC008 | 62.6 | 60.8 | 94% | 29.86 | 0.0 | |||||||
| 01 | 06:35 | N 2 | 10.00 | Mostly Cloudy | BKN008 | 60.8 | 59 | 94% | 29.85 | 0.0 | |||||||
| 01 | 06:15 | NW 2 | 10.00 | A Few Clouds | FEW010 | 60.8 | 59 | 94% | 29.85 | 0.0 | |||||||
| 01 | 05:55 | S 1 | 10.00 | Fair | CLR | 60.8 | 60.8 | 100% | 29.85 | 0.0 | |||||||
| 01 | 05:35 | W 3 | 10.00 | A Few Clouds | FEW041 FEW120 | 60.8 | 60.8 | 100% | 29.85 | 0.0 | |||||||
| 01 | 05:15 | W 2 | 10.00 | Mostly Cloudy | FEW043 BKN120 | 60.8 | 59 | 94% | 29.84 | 0.0 | |||||||
| 01 | 04:55 | E 1 | 10.00 | A Few Clouds | FEW043 FEW120 | 60.8 | 59 | 94% | 29.84 | 0.0 | |||||||
| 01 | 04:35 | NE 1 | 10.00 | Fair | CLR | 60.8 | 59 | 94% | 29.84 | 0.0 | |||||||
| 01 | 04:15 | Calm | 10.00 | Fair | CLR | 60.8 | 59 | 94% | 29.84 | 0.0 | |||||||
| 01 | 03:55 | NW 3 | 10.00 | Fair | CLR | 60.8 | 59 | 94% | 29.84 | 0.0 | |||||||
| 01 | 03:35 | W 3 | 10.00 | Fair | CLR | 60.8 | 59 | 94% | 29.84 | 0.0 | |||||||
| 01 | 03:15 | W 5 | 10.00 | Fair | CLR | 60.8 | 59 | 94% | 29.83 | 0.0 | |||||||
| 01 | 02:55 | N 1 | 10.00 | Fair | CLR | 60.8 | 59 | 94% | 29.83 | 0.0 | |||||||
| 01 | 02:35 | NW 3 | 10.00 | Fair | CLR | 60.8 | 59 | 94% | 29.84 | 0.0 | |||||||
| 01 | 02:15 | Calm | 10.00 | Fair | CLR | 62.6 | 60.8 | 94% | 29.84 | 0.0 | |||||||
| 01 | 01:55 | N 2 | 10.00 | Fair | CLR | 62.6 | 60.8 | 77.4 | 63.3 | 94% | 29.84 | 0.0 | |||||
| 01 | 01:35 | Calm | 10.00 | Fair | CLR | 64.4 | 60.8 | 88% | 29.85 | 0.0 | |||||||
| 01 | 01:15 | NW 3 | 10.00 | A Few Clouds | FEW044 | 66.2 | 60.8 | 83% | 29.85 | 0.0 | |||||||
| 01 | 00:55 | NW 5 | 10.00 | Overcast | BKN044 OVC060 | 66.2 | 62.6 | 88% | 29.86 | 0.0 | |||||||
| 01 | 00:35 | W 5 | 10.00 | Overcast | BKN044 OVC050 | 66.2 | 62.6 | 88% | 29.86 | 0.0 | |||||||
| 01 | 00:15 | N 2 | 10.00 | Overcast | OVC048 | 66.2 | 62.6 | 88% | 29.85 | 0.0 | |||||||
| 30 | 23:55 | NE 2 | 10.00 | Overcast | OVC046 | 66.2 | 62.6 | 88% | 29.86 | 0.0 | |||||||
| 30 | 23:35 | Vrbl 1 | 10.00 | Mostly Cloudy | BKN046 | 66.2 | 62.6 | 88% | 29.86 | 0.0 | |||||||
| 30 | 23:15 | SE 1 | 10.00 | A Few Clouds | FEW046 FEW100 | 64.4 | 62.6 | 94% | 29.85 | 0.0 | |||||||
| 30 | 22:55 | Calm | 10.00 | A Few Clouds | FEW100 | 66.2 | 62.6 | 88% | 29.85 | 0.0 | |||||||
| 30 | 22:35 | S 2 | 10.00 | Fair | CLR | 66.2 | 62.6 | 88% | 29.85 | 0.0 | |||||||
| 30 | 22:15 | Calm | 10.00 | Fair | CLR | 66.2 | 62.6 | 88% | 29.84 | 0.0 | |||||||
| 30 | 21:55 | S 1 | 10.00 | Fair | CLR | 68 | 62.6 | 83% | 29.84 | 0.0 | |||||||
| 30 | 21:35 | Vrbl 1 | 10.00 | Fair | CLR | 69.8 | 62.6 | 78% | 29.83 | 0.0 | |||||||
| 30 | 21:15 | NW 3 | 10.00 | A Few Clouds | FEW110 | 73.4 | 60.8 | 65% | 29.81 | 0.0 | |||||||
| 30 | 20:55 | N 6 | 10.00 | A Few Clouds | FEW055 FEW100 | 71.6 | 62.6 | 73% | 29.81 | 0.0 | |||||||
| 30 | 20:35 | N 2 | 10.00 | Mostly Cloudy | SCT049 BKN060 | 73.4 | 62.6 | 69% | 29.8 | 0.0 | |||||||
| 30 | 20:15 | NW 3 | 10.00 | Mostly Cloudy | BKN049 | 75.2 | 60.8 | 61% | 77 | 29.79 | 0.0 | ||||||
| 30 | 19:35 | NW 6 | 10.00 | Fair | CLR | 77 | 59 | 54% | 79 | 29.78 | 0.0 | ||||||
| 30 | 19:15 | NW 5 | 10.00 | Fair | CLR | 78.8 | 59 | 51% | 80 | 29.77 | 0.0 | ||||||
| 30 | 18:55 | NW 7 | 10.00 | Fair | CLR | 78.8 | 59 | 51% | 80 | 29.77 | 0.0 | ||||||
| 30 | 18:35 | Vrbl 5 | 10.00 | Fair | CLR | 78.8 | 59 | 51% | 80 | 29.77 | 0.0 | ||||||
| 30 | 18:15 | NW 8 | 10.00 | Fair | CLR | 80.6 | 59 | 48% | 81 | 29.77 | 0.0 | ||||||
| 30 | 17:55 | NW 7 | 10.00 | Fair | CLR | 80.6 | 59 | 48% | 81 | 29.77 | 0.0 | ||||||
| 30 | 17:35 | NW 10 | 10.00 | A Few Clouds | FEW070 | 80.6 | 59 | 48% | 81 | 29.77 | 0.0 | ||||||
| 30 | 17:15 | Vrbl 6 | 10.00 | A Few Clouds | FEW050 FEW070 | 80.6 | 60.8 | 51% | 81 | 29.76 | 0.0 | ||||||
| 30 | 16:55 | N 9 | 10.00 | Partly Cloudy | SCT070 | 80.6 | 59 | 48% | 81 | 29.76 | 0.0 | ||||||
| 30 | 16:35 | W 12 | 10.00 | A Few Clouds | FEW070 | 82.4 | 60.8 | 48% | 83 | 29.76 | 0.0 | ||||||
| 30 | 16:15 | NW 7 | 10.00 | A Few Clouds | FEW060 | 80.6 | 60.8 | 51% | 81 | 29.76 | 0.0 | ||||||
| 30 | 15:55 | Vrbl 7 | 10.00 | Partly Cloudy | FEW048 SCT070 | 80.6 | 60.8 | 51% | 81 | 29.77 | 0.0 | ||||||
| 30 | 15:35 | Vrbl 3 | 10.00 | Mostly Cloudy | FEW050 BKN070 | 80.6 | 60.8 | 51% | 81 | 29.77 | 0.0 | ||||||
| 30 | 15:15 | NW 6 | 10.00 | Mostly Cloudy | BKN070 | 82.4 | 60.8 | 48% | 83 | 29.78 | 0.0 | ||||||
| 30 | 14:55 | NW 9 G 20 | 10.00 | Mostly Cloudy | SCT046 BKN065 BKN080 | 80.6 | 60.8 | 51% | 81 | 29.78 | 0.0 | ||||||
| 30 | 14:35 | NW 10 G 17 | 10.00 | Mostly Cloudy | FEW048 BKN065 BKN080 | 80.6 | 60.8 | 51% | 81 | 29.79 | 0.0 | ||||||
| 30 | 14:15 | NW 12 G 21 | 10.00 | Partly Cloudy | FEW046 FEW050 SCT065 | 80.6 | 60.8 | 51% | 81 | 29.79 | 0.0 | ||||||
| 30 | 13:55 | NW 9 G 20 | 10.00 | A Few Clouds | FEW047 | 82.4 | 60.8 | 82.6 | 71.4 | 48% | 83 | 29.79 | 0.0 | ||||
| 30 | 13:35 | NW 10 | 10.00 | A Few Clouds | FEW043 | 80.6 | 60.8 | 51% | 81 | 29.78 | 0.0 | ||||||
| 30 | 13:15 | Vrbl 7 G 16 | 10.00 | Partly Cloudy | SCT043 | 80.6 | 60.8 | 51% | 81 | 29.79 | 0.0 | ||||||
| 30 | 12:55 | NW 9 | 10.00 | Fair | CLR | 78.8 | 60.8 | 54% | 80 | 29.79 | 0.0 | ||||||
| 30 | 12:35 | NW 6 | 10.00 | Fair | CLR | 78.8 | 62.6 | 58% | 80 | 29.8 | 0.0 | ||||||
| 30 | 12:15 | W 6 | 10.00 | Fair | CLR | 77 | 62.6 | 61% | 79 | 29.8 | 0.0 | ||||||
| 30 | 11:55 | W 5 | 10.00 | Fair | CLR | 77 | 62.6 | 61% | 79 | 29.8 | 0.0 | ||||||
| 30 | 11:35 | NW 3 | 10.00 | Fair | CLR | 77 | 62.6 | 61% | 79 | 29.8 | 0.0 | ||||||
| 30 | 11:15 | W 6 | 10.00 | Fair | CLR | 75.2 | 60.8 | 61% | 77 | 29.81 | 0.0 | ||||||
| 30 | 10:55 | NW 7 | 10.00 | Fair | CLR | 75.2 | 62.6 | 65% | 77 | 29.81 | 0.0 | ||||||
| 30 | 10:35 | NW 7 | 10.00 | Fair | CLR | 75.2 | 62.6 | 65% | 77 | 29.82 | 0.0 | ||||||
| 30 | 10:15 | NW 9 | 10.00 | Partly Cloudy | SCT090 | 75.2 | 64.4 | 69% | 77 | 29.82 | 0.0 | ||||||
| 30 | 09:55 | NW 10 | 10.00 | Mostly Cloudy | BKN100 | 73.4 | 64.4 | 74% | 29.82 | 0.0 | |||||||
| 30 | 09:35 | W 5 | 10.00 | Partly Cloudy | SCT100 | 73.4 | 66.2 | 78% | 29.81 | 0.0 | |||||||
| 30 | 09:15 | W 7 | 10.00 | Partly Cloudy | SCT100 | 73.4 | 66.2 | 78% | 29.82 | 0.0 | |||||||
| 30 | 08:55 | W 5 | 10.00 | Mostly Cloudy | BKN085 BKN100 | 73.4 | 66.2 | 78% | 29.82 | 0.0 | |||||||
| 30 | 08:35 | W 6 | 10.00 | Overcast | OVC085 | 71.6 | 66.2 | 83% | 29.82 | 0.0 | |||||||
| 30 | 08:15 | NW 7 | 10.00 | Overcast | OVC085 | 71.6 | 68 | 88% | 29.82 | 0.0 | |||||||
| 30 | 07:55 | W 6 | 10.00 | Overcast | OVC085 | 71.6 | 68 | 74.7 | 70.3 | 88% | 29.81 | 0.0 | |||||
| 30 | 07:35 | SW 6 | 10.00 | Overcast | FEW070 OVC085 | 71.6 | 68 | 88% | 29.8 | 0.0 | |||||||
| 30 | 07:15 | W 7 | 10.00 | Overcast | OVC085 | 71.6 | 68 | 88% | 29.79 | 0.0 | |||||||
| 30 | 06:55 | W 8 | 10.00 | Light Rain | FEW060 SCT070 OVC085 | 71.6 | 68 | 88% | 29.77 | 0.0 | |||||||
| 30 | 06:35 | W 12 | 10.00 | Overcast | FEW060 BKN070 OVC090 | 71.6 | 68 | 88% | 29.77 | 0.0 | |||||||
| 30 | 06:15 | W 6 | 10.00 | Mostly Cloudy | BKN090 BKN120 | 71.6 | 68 | 88% | 29.75 | 0.0 | |||||||
| 30 | 05:55 | W 7 | 10.00 | Mostly Cloudy | FEW080 BKN110 | 71.6 | 68 | 88% | 29.75 | 0.0 | |||||||
| 30 | 05:35 | W 6 | 10.00 | Light Rain | BKN075 BKN095 OVC120 | 73.4 | 68 | 83% | 29.75 | 0.0 | |||||||
| 30 | 05:15 | W 8 G 18 | 10.00 | Light Rain | BKN070 BKN095 OVC110 | 73.4 | 66.2 | 78% | 29.76 | 0.0 | |||||||
| 30 | 04:55 | W 13 | 10.00 | Mostly Cloudy | SCT080 BKN090 BKN120 | 73.4 | 66.2 | 78% | 29.77 | 0.0 | |||||||
| 30 | 04:35 | W 5 | 10.00 | Partly Cloudy | SCT110 | 73.4 | 66.2 | 78% | 29.77 | 0.0 | |||||||
| 30 | 04:15 | SW 3 | 10.00 | A Few Clouds | FEW047 FEW060 FEW110 | 73.4 | 64.4 | 74% | 29.77 | 0.0 | |||||||
| 30 | 03:55 | W 6 | 10.00 | Partly Cloudy | SCT060 | 73.4 | 64.4 | 74% | 29.77 | 0.0 | |||||||
| 30 | 03:35 | SW 5 | 10.00 | Partly Cloudy | SCT060 | 73.4 | 64.4 | 74% | 29.77 | 0.0 | |||||||
| 30 | 03:15 | SW 7 | 10.00 | Fair | CLR | 71.6 | 66.2 | 83% | 29.77 | 0.0 | |||||||
| 30 | 02:55 | W 2 | 10.00 | Fair | CLR | 71.6 | 66.2 | 83% | 29.76 | 0.0 | |||||||
| 30 | 02:35 | Vrbl 2 | 10.00 | Fair | CLR | 73.4 | 64.4 | 74% | 29.78 | 0.0 | |||||||
| 30 | 02:15 | SW 2 | 10.00 | Fair | CLR | 73.4 | 66.2 | 78% | 29.79 | 0.0 | |||||||
| 30 | 01:55 | SW 5 | 10.00 | Fair | CLR | 73.4 | 66.2 | 82.9 | 71.1 | 78% | 29.79 | 0.0 | |||||
| 30 | 01:35 | SW 1 | 10.00 | Fair | CLR | 73.4 | 64.4 | 74% | 29.81 | 0.0 | |||||||
| Date | Time (edt) | Wind (mph) | Vis. (mi.) | Weather | Sky Cond. | Air | Dwpt | Max. | Min. | Relative Humidity | Wind Chill (°F) | Heat Index (°F) | altimeter (in) | sea level (mb) | 1 hr | 3 hr | 6 hr |
| 6 hour | |||||||||||||||||
| Temperature (ºF) | Pressure | Precipitation (in) | |||||||||||||||